Celebrity Infinity — 9HJD9 — position and weather

sailwx.info

Track history (hours):
 
Tides and Currents Weather Stations Pressure Air Temp Water Temp Dewpoint Dewpoint Depression Visibility Wind Speed Wind Dir Waves Ship Positions

Celebrity Infinity

Last reported at 2015-Jul-06 06:32 UTC. Time now 2015-Jul-06 07:11 UTC.
Position N 49°46' W 124°50'.

Length 294 m; draft 8.3 m.

Type: Passenger vessel. MMSI: 249048000.

Date/timePositionNaut miles runAvg speedWind from/ knotsBaromVisibWave heightAir tempDewpointWater temp
2015-Jul-06 06:32N 49°46' W 124°50'7 7.3
2015-Jul-06 05:33N 49°40' W 124°43'7 7.2
2015-Jul-06 04:34N 49°35' W 124°35'7 7.3
2015-Jul-06 03:33N 49°29' W 124°28'7 6.7
2015-Jul-06 02:33N 49°25' W 124°20'1111.3
2015-Jul-06 01:33N 49°24' W 124°03'2121.5
2015-Jul-06 00:33N 49°21' W 123°30'1616.1
2015-Jul-05 23:33N 49°18' W 123°06'1 0.6
2015-Jul-05 22:32N 49°17' W 123°07'0 0.0
2015-Jul-05 21:32N 49°17' W 123°07'0 0.0
2015-Jul-05 20:31N 49°17' W 123°07'0 0.0
2015-Jul-05 19:31N 49°17' W 123°07'0 0.0
2015-Jul-05 18:33N 49°17' W 123°07'0 0.0
2015-Jul-05 17:33N 49°17' W 123°07'0 0.0
2015-Jul-05 16:32N 49°17' W 123°07'0 0.0
2015-Jul-05 15:32N 49°17' W 123°07'0 0.0
2015-Jul-05 14:31N 49°17' W 123°07'0 0.1
2015-Jul-05 13:33N 49°17' W 123°06'5 5.5
2015-Jul-05 12:33N 49°19' W 123°15'9 8.9
2015-Jul-05 11:33N 49°18' W 123°28'9 9.4
2015-Jul-05 10:33N 49°18' W 123°43'10 9.9
2015-Jul-05 09:33N 49°21' W 123°57'1010.2
2015-Jul-05 08:33N 49°24' W 124°12'1010.2
2015-Jul-05 07:33N 49°28' W 124°27'1010.5
2015-Jul-05 06:33N 49°35' W 124°38'1010.4
2015-Jul-05 05:33N 49°43' W 124°49'1110.8
2015-Jul-05 04:33N 49°51' W 125°00'1513.3
2015-Jul-05 03:25N 50°03' W 125°14'1112.7
2015-Jul-05 02:33N 50°13' W 125°23'6215.1
2015-Jul-04 22:27N 50°40' W 126°50'1921.2
2015-Jul-04 21:32N 50°47' W 127°18'2222.1
2015-Jul-04 20:33N 50°59' W 127°47'42712.0
2015-Jul-03 09:00N 57°06' W 134°00'87 3.4 200 / 121023.810.8 2.012.0 9.0
2015-Jul-02 07:32N 58°15' W 135°37'1212.0
2015-Jul-02 06:33N 58°16' W 135°59'10415.9
2015-Jul-02 00:00N 58°54' W 139°06'101 6.2 050 / 181019.0 13.0 9.0
2015-Jul-01 07:33N 58°20' W 136°03'2019.5
2015-Jul-01 06:33N 58°14' W 135°28'150 8.1
2015-Jun-30 12:00N 55°48' W 134°24'35315.7 350 / 151023.0 12.0 8.0
2015-Jun-29 13:26N 51°06' W 128°27'1617.4
2015-Jun-29 12:33N 51°01' W 128°04'1514.8
2015-Jun-29 11:33N 50°56' W 127°42'1817.6
2015-Jun-29 10:33N 50°47' W 127°18'1717.1
2015-Jun-29 09:33N 50°41' W 126°53'1514.7
2015-Jun-29 08:31N 50°30' W 126°35'2417.4
2015-Jun-29 07:07N 50°25' W 125°58'6015.7
2015-Jun-29 03:18N 49°45' W 124°49'1821.0
2015-Jun-29 02:27N 49°31' W 124°31'2020.4
2015-Jun-29 01:28N 49°22' W 124°03'1920.5
2015-Jun-29 00:33N 49°17' W 123°36'1918.6
2015-Jun-28 23:33N 49°18' W 123°07'1 1.3
2015-Jun-28 22:33N 49°17' W 123°07'0 0.0
2015-Jun-28 21:32N 49°17' W 123°07'0 0.0
2015-Jun-28 20:32N 49°17' W 123°07'0 0.0
2015-Jun-28 19:31N 49°17' W 123°07'0 0.0
2015-Jun-28 18:31N 49°17' W 123°07'0 0.0
2015-Jun-28 17:33N 49°17' W 123°07'0 0.0
2015-Jun-28 16:33N 49°17' W 123°07'0 0.0
2015-Jun-28 15:33N 49°17' W 123°07'0 0.0
2015-Jun-28 14:32N 49°17' W 123°07'0 0.0
2015-Jun-28 13:33N 49°17' W 123°07'6 5.6
2015-Jun-28 12:33N 49°18' W 123°15'1211.8
2015-Jun-28 11:33N 49°16' W 123°33'610.8
2015-Jun-28 11:00N 49°18' W 123°42'715.5 340 / 121015.0 14.0 10.0
2015-Jun-28 10:33N 49°20' W 123°52'1312.9
2015-Jun-28 09:33N 49°24' W 124°11'10713.3
2015-Jun-28 01:30N 50°30' W 126°22'1414.1
2015-Jun-28 00:32N 50°35' W 126°42'1414.5
2015-Jun-27 23:33N 50°43' W 127°00'813.5
2015-Jun-27 23:00N 50°42' W 127°12'1125.8 340 / 151020.0 18.0 10.0
2015-Jun-27 22:33N 50°50' W 127°25'1615.9
2015-Jun-27 21:34N 50°58' W 127°46'1918.8
2015-Jun-27 20:32N 51°07' W 128°13'1919.1
2015-Jun-27 19:32N 51°17' W 128°40'2019.6
2015-Jun-27 18:30N 51°30' W 129°04'37611.2
2015-Jun-26 09:00N 57°00' W 134°12'   140 / 401016.010.8 3.012.0 8.0
Track history (hours):
 
Tides and Currents Weather Stations Pressure Air Temp Water Temp Dewpoint Dewpoint Depression Visibility Wind Speed Wind Dir Waves Ship Positions

Celebrity Infinity

Last reported at 2015-Jul-06 06:32 UTC. Time now 2015-Jul-06 07:11 UTC.
Position N 49°46' W 124°50'.

Length 294 m; draft 8.3 m.

Type: Passenger vessel. MMSI: 249048000.

Date/timePositionNaut miles runAvg speedWind from/ knotsBaromVisibWave heightAir tempDewpointWater temp
2015-Jul-06 06:32N 49°46' W 124°50'7 7.3
2015-Jul-06 05:33N 49°40' W 124°43'7 7.2
2015-Jul-06 04:34N 49°35' W 124°35'7 7.3
2015-Jul-06 03:33N 49°29' W 124°28'7 6.7
2015-Jul-06 02:33N 49°25' W 124°20'1111.3
2015-Jul-06 01:33N 49°24' W 124°03'2121.5
2015-Jul-06 00:33N 49°21' W 123°30'1616.1
2015-Jul-05 23:33N 49°18' W 123°06'1 0.6
2015-Jul-05 22:32N 49°17' W 123°07'0 0.0
2015-Jul-05 21:32N 49°17' W 123°07'0 0.0
2015-Jul-05 20:31N 49°17' W 123°07'0 0.0
2015-Jul-05 19:31N 49°17' W 123°07'0 0.0
2015-Jul-05 18:33N 49°17' W 123°07'0 0.0
2015-Jul-05 17:33N 49°17' W 123°07'0 0.0
2015-Jul-05 16:32N 49°17' W 123°07'0 0.0
2015-Jul-05 15:32N 49°17' W 123°07'0 0.0
2015-Jul-05 14:31N 49°17' W 123°07'0 0.1
2015-Jul-05 13:33N 49°17' W 123°06'5 5.5
2015-Jul-05 12:33N 49°19' W 123°15'9 8.9
2015-Jul-05 11:33N 49°18' W 123°28'9 9.4
2015-Jul-05 10:33N 49°18' W 123°43'10 9.9
2015-Jul-05 09:33N 49°21' W 123°57'1010.2
2015-Jul-05 08:33N 49°24' W 124°12'1010.2
2015-Jul-05 07:33N 49°28' W 124°27'1010.5
2015-Jul-05 06:33N 49°35' W 124°38'1010.4
2015-Jul-05 05:33N 49°43' W 124°49'1110.8
2015-Jul-05 04:33N 49°51' W 125°00'1513.3
2015-Jul-05 03:25N 50°03' W 125°14'1112.7
2015-Jul-05 02:33N 50°13' W 125°23'6215.1
2015-Jul-04 22:27N 50°40' W 126°50'1921.2
2015-Jul-04 21:32N 50°47' W 127°18'2222.1
2015-Jul-04 20:33N 50°59' W 127°47'42712.0
2015-Jul-03 09:00N 57°06' W 134°00'87 3.4 200 / 121023.810.8 2.012.0 9.0
2015-Jul-02 07:32N 58°15' W 135°37'1212.0
2015-Jul-02 06:33N 58°16' W 135°59'10415.9
2015-Jul-02 00:00N 58°54' W 139°06'101 6.2 050 / 181019.0 13.0 9.0
2015-Jul-01 07:33N 58°20' W 136°03'2019.5
2015-Jul-01 06:33N 58°14' W 135°28'150 8.1
2015-Jun-30 12:00N 55°48' W 134°24'35315.7 350 / 151023.0 12.0 8.0
2015-Jun-29 13:26N 51°06' W 128°27'1617.4
2015-Jun-29 12:33N 51°01' W 128°04'1514.8
2015-Jun-29 11:33N 50°56' W 127°42'1817.6
2015-Jun-29 10:33N 50°47' W 127°18'1717.1
2015-Jun-29 09:33N 50°41' W 126°53'1514.7
2015-Jun-29 08:31N 50°30' W 126°35'2417.4
2015-Jun-29 07:07N 50°25' W 125°58'6015.7
2015-Jun-29 03:18N 49°45' W 124°49'1821.0
2015-Jun-29 02:27N 49°31' W 124°31'2020.4
2015-Jun-29 01:28N 49°22' W 124°03'1920.5
2015-Jun-29 00:33N 49°17' W 123°36'1918.6
2015-Jun-28 23:33N 49°18' W 123°07'1 1.3
2015-Jun-28 22:33N 49°17' W 123°07'0 0.0
2015-Jun-28 21:32N 49°17' W 123°07'0 0.0
2015-Jun-28 20:32N 49°17' W 123°07'0 0.0
2015-Jun-28 19:31N 49°17' W 123°07'0 0.0
2015-Jun-28 18:31N 49°17' W 123°07'0 0.0
2015-Jun-28 17:33N 49°17' W 123°07'0 0.0
2015-Jun-28 16:33N 49°17' W 123°07'0 0.0
2015-Jun-28 15:33N 49°17' W 123°07'0 0.0
2015-Jun-28 14:32N 49°17' W 123°07'0 0.0
2015-Jun-28 13:33N 49°17' W 123°07'6 5.6
2015-Jun-28 12:33N 49°18' W 123°15'1211.8
2015-Jun-28 11:33N 49°16' W 123°33'610.8
2015-Jun-28 11:00N 49°18' W 123°42'715.5 340 / 121015.0 14.0 10.0
2015-Jun-28 10:33N 49°20' W 123°52'1312.9
2015-Jun-28 09:33N 49°24' W 124°11'10713.3
2015-Jun-28 01:30N 50°30' W 126°22'1414.1
2015-Jun-28 00:32N 50°35' W 126°42'1414.5
2015-Jun-27 23:33N 50°43' W 127°00'813.5
2015-Jun-27 23:00N 50°42' W 127°12'1125.8 340 / 151020.0 18.0 10.0
2015-Jun-27 22:33N 50°50' W 127°25'1615.9
2015-Jun-27 21:34N 50°58' W 127°46'1918.8
2015-Jun-27 20:32N 51°07' W 128°13'1919.1
2015-Jun-27 19:32N 51°17' W 128°40'2019.6
2015-Jun-27 18:30N 51°30' W 129°04'37611.2
2015-Jun-26 09:00N 57°00' W 134°12'   140 / 401016.010.8 3.012.0 8.0

Dump ship's entire track history